Time;durP1;ratioP1;P1;durP2;ratioP2;P2;SDS_P1;SDS_P2;PMS_P1;PMS_P2;Temp;Humidity;BMP_temperature;BMP_pressure;BME280_temperature;BME280_humidity;BME280_pressure;Samples;Min_cycle;Max_cycle;Signal;HPM_P1;HPM_P2
2022/02/26 00:01:03;;;;;;;13.05;1.60;;;;;;;;;;5105080;28;20028;-73
2022/02/26 00:03:28;;;;;;;9.45;1.55;;;;;;;;;;5106731;28;20110;-74
2022/02/26 00:05:54;;;;;;;8.70;1.20;;;;;;;;;;5106582;28;20054;-73
2022/02/26 00:08:19;;;;;;;5.82;1.23;;;;;;;;;;5106655;28;20406;-74
2022/02/26 00:10:45;;;;;;;13.13;2.10;;;;;;;;;;5106559;28;20032;-74
2022/02/26 00:13:10;;;;;;;8.75;1.30;;;;;;;;;;5106462;28;20032;-74
2022/02/26 00:15:36;;;;;;;6.05;1.23;;;;;;;;;;5106221;28;20045;-74
2022/02/26 00:18:01;;;;;;;13.10;1.58;;;;;;;;;;5106215;28;20020;-74
2022/02/26 00:20:27;;;;;;;9.63;1.98;;;;;;;;;;5106110;28;20130;-74
2022/02/26 00:22:52;;;;;;;10.18;1.10;;;;;;;;;;5105979;28;20083;-74
2022/02/26 00:25:17;;;;;;;12.55;1.70;;;;;;;;;;5105741;28;20067;-73
2022/02/26 00:27:43;;;;;;;8.18;1.33;;;;;;;;;;5106481;28;20020;-74
2022/02/26 00:30:09;;;;;;;9.68;1.52;;;;;;;;;;5105940;28;20020;-73
2022/02/26 00:32:34;;;;;;;9.50;1.58;;;;;;;;;;5104293;28;20016;-74
2022/02/26 00:35:00;;;;;;;3.13;0.90;;;;;;;;;;5104650;28;20026;-74
2022/02/26 00:37:25;;;;;;;9.80;1.30;;;;;;;;;;5105588;28;20046;-74
2022/02/26 00:39:51;;;;;;;8.32;1.67;;;;;;;;;;5105531;28;20420;-74
2022/02/26 00:42:16;;;;;;;6.78;1.58;;;;;;;;;;5105909;28;20027;-74
2022/02/26 00:44:41;;;;;;;4.63;1.10;;;;;;;;;;5104103;28;20028;-74
2022/02/26 00:47:08;;;;;;;7.88;1.65;;;;;;;;;;5105850;28;20052;-74
2022/02/26 00:49:50;;;;;;;8.85;1.23;;;;;;;;;;5105559;28;20080;-74
2022/02/26 00:52:21;;;;;;;5.30;1.42;;;;;;;;;;5104041;28;20083;-74
2022/02/26 00:54:47;;;;;;;7.35;1.10;;;;;;;;;;5105394;28;20023;-74
2022/02/26 00:57:13;;;;;;;5.95;1.00;;;;;;;;;;5105322;28;20076;-74
2022/02/26 00:59:38;;;;;;;7.82;1.13;;;;;;;;;;5105102;28;20016;-74
2022/02/26 01:02:06;;;;;;;7.88;1.23;;;;;;;;;;5105343;28;20031;-73
2022/02/26 01:04:31;;;;;;;5.90;1.20;;;;;;;;;;5103970;28;20465;-74
2022/02/26 01:06:57;;;;;;;8.75;1.23;;;;;;;;;;5105520;28;20089;-74
2022/02/26 01:09:22;;;;;;;9.25;1.30;;;;;;;;;;5105325;28;20023;-74
2022/02/26 01:11:48;;;;;;;12.88;1.48;;;;;;;;;;5105243;28;20020;-74
2022/02/26 01:14:14;;;;;;;7.18;1.10;;;;;;;;;;5105294;28;20028;-74
2022/02/26 01:16:39;;;;;;;7.13;1.25;;;;;;;;;;5105451;28;20125;-73
2022/02/26 01:19:05;;;;;;;9.07;1.67;;;;;;;;;;5104981;28;20028;-74
2022/02/26 01:21:30;;;;;;;6.88;1.77;;;;;;;;;;5105511;28;20043;-74
2022/02/26 01:23:56;;;;;;;9.30;1.75;;;;;;;;;;5104614;28;20044;-75
2022/02/26 01:26:22;;;;;;;6.90;1.60;;;;;;;;;;5104826;28;20016;-74
2022/02/26 01:28:48;;;;;;;8.38;1.25;;;;;;;;;;5105140;28;20020;-73
2022/02/26 01:31:14;;;;;;;6.88;1.08;;;;;;;;;;5104658;28;20016;-74
2022/02/26 01:33:40;;;;;;;7.78;1.20;;;;;;;;;;5104574;28;20028;-73
2022/02/26 01:36:06;;;;;;;5.55;1.35;;;;;;;;;;5104683;28;20026;-74
2022/02/26 01:38:32;;;;;;;8.10;1.58;;;;;;;;;;5104724;28;20027;-74
2022/02/26 01:40:58;;;;;;;3.00;0.98;;;;;;;;;;5103043;28;20076;-74
2022/02/26 01:43:23;;;;;;;10.15;1.33;;;;;;;;;;5104747;28;20107;-74
2022/02/26 01:45:49;;;;;;;6.95;1.40;;;;;;;;;;5103031;28;20020;-74
2022/02/26 01:48:14;;;;;;;7.32;1.38;;;;;;;;;;5104752;28;20050;-74
2022/02/26 01:50:40;;;;;;;6.18;1.10;;;;;;;;;;5104622;28;20019;-74
2022/02/26 01:53:05;;;;;;;8.05;1.10;;;;;;;;;;5104509;28;20582;-74
2022/02/26 01:55:31;;;;;;;5.95;1.25;;;;;;;;;;5102807;28;20024;-73
2022/02/26 01:57:57;;;;;;;6.50;1.02;;;;;;;;;;5104113;28;20035;-74
2022/02/26 02:00:23;;;;;;;8.27;1.30;;;;;;;;;;5103738;28;20015;-74
2022/02/26 02:02:48;;;;;;;6.07;1.25;;;;;;;;;;5104191;28;20548;-74
2022/02/26 02:05:14;;;;;;;9.30;1.17;;;;;;;;;;5102446;28;20028;-74
2022/02/26 02:07:40;;;;;;;3.60;1.05;;;;;;;;;;5102746;28;20036;-73
2022/02/26 02:10:07;;;;;;;4.47;0.90;;;;;;;;;;5103009;28;20108;-74
2022/02/26 02:12:34;;;;;;;5.63;1.13;;;;;;;;;;5104189;28;20547;-73
2022/02/26 02:14:59;;;;;;;6.00;1.10;;;;;;;;;;5103904;28;20034;-73
2022/02/26 02:17:24;;;;;;;4.70;0.93;;;;;;;;;;5102373;28;20118;-74
2022/02/26 02:19:51;;;;;;;3.25;1.23;;;;;;;;;;5103613;28;20030;-73
2022/02/26 02:22:17;;;;;;;5.25;1.20;;;;;;;;;;5103830;28;20028;-74
2022/02/26 02:24:43;;;;;;;5.65;1.15;;;;;;;;;;5101947;28;20513;-74
2022/02/26 02:27:09;;;;;;;4.65;1.00;;;;;;;;;;5102292;28;20027;-74
2022/02/26 02:29:34;;;;;;;5.63;1.10;;;;;;;;;;5103253;28;20101;-74
2022/02/26 02:32:00;;;;;;;5.15;0.93;;;;;;;;;;5103504;28;20028;-74
2022/02/26 02:34:26;;;;;;;7.72;0.90;;;;;;;;;;5103303;28;20020;-74
2022/02/26 02:36:51;;;;;;;9.82;1.15;;;;;;;;;;5103598;28;20054;-74
2022/02/26 02:39:17;;;;;;;6.07;0.95;;;;;;;;;;5102215;28;20112;-74
2022/02/26 02:41:42;;;;;;;3.70;1.00;;;;;;;;;;5103453;28;20039;-73
2022/02/26 02:44:10;;;;;;;5.18;0.70;;;;;;;;;;5103150;28;20016;-74
2022/02/26 02:46:36;;;;;;;10.48;1.73;;;;;;;;;;5103686;28;20048;-74
2022/02/26 02:49:01;;;;;;;3.90;1.00;;;;;;;;;;5103342;28;20027;-74
2022/02/26 02:51:30;;;;;;;2.75;0.80;;;;;;;;;;5103325;28;20036;-74
2022/02/26 02:53:55;;;;;;;4.75;0.70;;;;;;;;;;5103171;28;20080;-74
2022/02/26 02:56:21;;;;;;;2.88;0.88;;;;;;;;;;5102769;28;20090;-74
2022/02/26 02:58:46;;;;;;;5.53;1.08;;;;;;;;;;5103475;28;20023;-74
2022/02/26 03:01:11;;;;;;;2.28;0.80;;;;;;;;;;5103133;28;20099;-74
2022/02/26 03:03:37;;;;;;;5.03;0.70;;;;;;;;;;5103302;28;20038;-74
2022/02/26 03:06:03;;;;;;;3.17;0.77;;;;;;;;;;5103096;28;20458;-74
2022/02/26 03:08:28;;;;;;;3.40;0.80;;;;;;;;;;5101956;28;20035;-74
2022/02/26 03:10:56;;;;;;;5.10;0.82;;;;;;;;;;5101662;28;20027;-74
2022/02/26 03:13:23;;;;;;;3.13;1.00;;;;;;;;;;5102865;28;20021;-74
2022/02/26 03:15:49;;;;;;;9.50;1.10;;;;;;;;;;5101281;28;20020;-74
2022/02/26 03:18:18;;;;;;;3.90;0.77;;;;;;;;;;5101609;28;20513;-74
2022/02/26 03:20:43;;;;;;;4.80;0.70;;;;;;;;;;5104187;28;20028;-74
2022/02/26 03:23:09;;;;;;;2.20;0.98;;;;;;;;;;5110148;28;20112;-74
2022/02/26 03:25:34;;;;;;;2.95;0.82;;;;;;;;;;5107920;28;20040;-74
2022/02/26 03:28:00;;;;;;;5.60;0.90;;;;;;;;;;5109565;28;20020;-74
2022/02/26 03:30:25;;;;;;;7.38;1.00;;;;;;;;;;5109519;28;20020;-74
2022/02/26 03:32:51;;;;;;;9.40;1.23;;;;;;;;;;5109723;28;20031;-74
2022/02/26 03:35:16;;;;;;;5.28;1.20;;;;;;;;;;5108129;28;20031;-74
2022/02/26 03:37:42;;;;;;;4.22;0.60;;;;;;;;;;5110104;28;20035;-74
2022/02/26 03:40:09;;;;;;;7.90;1.48;;;;;;;;;;5108337;28;20107;-74
2022/02/26 03:42:35;;;;;;;3.42;0.95;;;;;;;;;;5108544;28;20358;-74
2022/02/26 03:45:00;;;;;;;3.38;0.70;;;;;;;;;;5109588;28;20054;-74
2022/02/26 03:47:26;;;;;;;3.78;0.60;;;;;;;;;;5109595;28;20077;-74
2022/02/26 03:49:51;;;;;;;2.00;0.77;;;;;;;;;;5109650;28;20077;-73
2022/02/26 03:52:18;;;;;;;3.72;0.90;;;;;;;;;;5108371;28;20050;-74
2022/02/26 03:54:43;;;;;;;3.33;0.40;;;;;;;;;;5109498;28;20080;-74
2022/02/26 03:57:09;;;;;;;5.50;0.88;;;;;;;;;;5109306;28;20058;-74
2022/02/26 03:59:35;;;;;;;4.50;0.60;;;;;;;;;;5109066;28;20107;-74
2022/02/26 04:02:00;;;;;;;7.60;0.95;;;;;;;;;;5108241;28;20020;-74
2022/02/26 04:04:26;;;;;;;5.88;0.80;;;;;;;;;;5109128;28;20032;-74
2022/02/26 04:06:51;;;;;;;5.05;0.70;;;;;;;;;;5109356;28;20019;-74
2022/02/26 04:09:17;;;;;;;3.10;0.70;;;;;;;;;;5108713;28;20032;-74
2022/02/26 04:11:43;;;;;;;3.25;1.45;;;;;;;;;;5109708;28;20043;-74
2022/02/26 04:14:09;;;;;;;2.67;0.60;;;;;;;;;;5109526;28;20067;-74
2022/02/26 04:16:34;;;;;;;5.72;0.80;;;;;;;;;;5107777;28;20509;-74
2022/02/26 04:19:00;;;;;;;2.10;0.70;;;;;;;;;;5108938;28;20020;-74
2022/02/26 04:21:25;;;;;;;1.85;0.55;;;;;;;;;;5107939;28;20376;-74
2022/02/26 04:23:53;;;;;;;3.25;0.70;;;;;;;;;;5109166;28;20511;-73
2022/02/26 04:26:19;;;;;;;2.55;0.75;;;;;;;;;;5107902;28;20531;-74
2022/02/26 04:28:45;;;;;;;4.60;0.60;;;;;;;;;;5107654;28;20016;-74
2022/02/26 04:31:10;;;;;;;2.05;0.70;;;;;;;;;;5108826;28;20024;-74
2022/02/26 04:33:35;;;;;;;4.30;1.65;;;;;;;;;;5103970;28;20092;-74
2022/02/26 04:36:01;;;;;;;3.08;0.60;;;;;;;;;;5105981;28;20043;-74
2022/02/26 04:38:29;;;;;;;2.88;0.93;;;;;;;;;;5105506;28;20028;-74
2022/02/26 04:40:55;;;;;;;2.85;0.70;;;;;;;;;;5104189;28;20023;-74
2022/02/26 04:43:21;;;;;;;4.07;0.57;;;;;;;;;;5105773;28;20024;-74
2022/02/26 04:45:46;;;;;;;2.10;0.63;;;;;;;;;;5105607;28;20020;-74
2022/02/26 04:48:12;;;;;;;1.63;0.70;;;;;;;;;;5105656;28;20039;-74
2022/02/26 04:50:37;;;;;;;2.47;0.57;;;;;;;;;;5105753;28;20081;-74
2022/02/26 04:53:03;;;;;;;3.00;0.77;;;;;;;;;;5104074;28;20047;-74
2022/02/26 04:55:29;;;;;;;1.20;0.50;;;;;;;;;;5105518;28;20020;-74
2022/02/26 04:57:54;;;;;;;3.58;0.90;;;;;;;;;;5105563;28;20019;-74
2022/02/26 05:00:20;;;;;;;4.22;0.77;;;;;;;;;;5104905;28;20466;-74
2022/02/26 05:02:45;;;;;;;4.40;1.00;;;;;;;;;;5105260;28;20055;-75
2022/02/26 05:05:11;;;;;;;1.60;0.70;;;;;;;;;;5105283;28;20145;-74
2022/02/26 05:07:36;;;;;;;5.38;0.80;;;;;;;;;;5105252;28;20258;-74
2022/02/26 05:10:03;;;;;;;4.28;0.77;;;;;;;;;;5104594;28;20034;-74
2022/02/26 05:12:28;;;;;;;6.60;1.30;;;;;;;;;;5103803;28;20024;-74
2022/02/26 05:14:55;;;;;;;1.95;0.57;;;;;;;;;;5104926;28;20041;-74
2022/02/26 05:17:21;;;;;;;1.80;0.80;;;;;;;;;;5105037;28;20020;-74
2022/02/26 05:19:46;;;;;;;3.33;0.70;;;;;;;;;;5103456;28;20106;-74
2022/02/26 05:22:12;;;;;;;3.15;0.50;;;;;;;;;;5103525;28;20481;-75
2022/02/26 05:24:37;;;;;;;2.72;0.65;;;;;;;;;;5104920;28;20043;-74
2022/02/26 05:27:03;;;;;;;2.67;0.60;;;;;;;;;;5104750;28;20069;-74
2022/02/26 05:29:28;;;;;;;0.80;0.47;;;;;;;;;;5104869;28;20090;-74
2022/02/26 05:31:53;;;;;;;3.20;1.05;;;;;;;;;;5104621;28;20035;-74
2022/02/26 05:34:19;;;;;;;3.72;0.80;;;;;;;;;;5104575;28;20020;-74
2022/02/26 05:36:44;;;;;;;2.75;0.77;;;;;;;;;;5104953;28;20103;-74
2022/02/26 05:39:10;;;;;;;4.35;1.05;;;;;;;;;;5104457;28;20408;-74
2022/02/26 05:41:36;;;;;;;6.57;0.88;;;;;;;;;;5104852;28;20043;-75
2022/02/26 05:44:01;;;;;;;2.10;0.90;;;;;;;;;;5101660;28;20024;-74
2022/02/26 05:46:29;;;;;;;5.38;0.70;;;;;;;;;;5104302;28;20028;-75
2022/02/26 05:48:55;;;;;;;5.03;0.75;;;;;;;;;;5104300;28;20460;-74
2022/02/26 05:51:20;;;;;;;3.05;0.80;;;;;;;;;;5102728;28;20024;-74
2022/02/26 05:53:46;;;;;;;5.53;1.08;;;;;;;;;;5102826;28;20016;-74
2022/02/26 05:56:11;;;;;;;2.45;0.60;;;;;;;;;;5104032;28;20075;-74
2022/02/26 05:58:37;;;;;;;4.72;0.70;;;;;;;;;;5103111;28;20114;-74
2022/02/26 06:01:02;;;;;;;3.80;0.70;;;;;;;;;;5102447;28;20138;-74
2022/02/26 06:03:28;;;;;;;4.15;0.70;;;;;;;;;;5103945;28;20020;-74
2022/02/26 06:05:53;;;;;;;2.58;0.63;;;;;;;;;;5102582;28;20024;-75
2022/02/26 06:08:19;;;;;;;3.78;0.60;;;;;;;;;;5102418;28;20428;-74
2022/02/26 06:10:45;;;;;;;3.13;0.90;;;;;;;;;;5104008;28;20449;-74
2022/02/26 06:13:10;;;;;;;4.15;0.65;;;;;;;;;;5102551;28;20019;-75
2022/02/26 06:15:36;;;;;;;3.22;0.82;;;;;;;;;;5103885;28;20023;-74
2022/02/26 06:18:01;;;;;;;3.80;0.90;;;;;;;;;;5103926;28;20031;-74
2022/02/26 06:20:26;;;;;;;2.42;0.88;;;;;;;;;;5103969;28;20069;-74
2022/02/26 06:22:52;;;;;;;1.75;0.55;;;;;;;;;;5102522;28;20417;-75
2022/02/26 06:25:19;;;;;;;4.10;0.80;;;;;;;;;;5103405;28;20047;-74
2022/02/26 06:27:45;;;;;;;6.57;0.90;;;;;;;;;;5103943;28;20024;-74
2022/02/26 06:30:12;;;;;;;3.65;1.27;;;;;;;;;;5103416;28;20016;-74
2022/02/26 06:32:38;;;;;;;1.85;0.80;;;;;;;;;;5103490;28;20085;-74
2022/02/26 06:35:05;;;;;;;6.88;1.08;;;;;;;;;;5103393;28;20027;-74
2022/02/26 06:37:30;;;;;;;4.43;0.90;;;;;;;;;;5103658;28;20020;-74
2022/02/26 06:39:56;;;;;;;3.33;0.88;;;;;;;;;;5103384;28;20028;-74
2022/02/26 06:42:22;;;;;;;4.90;0.80;;;;;;;;;;5101849;28;20075;-74
2022/02/26 06:44:47;;;;;;;4.18;0.80;;;;;;;;;;5102127;28;20366;-74
2022/02/26 06:47:13;;;;;;;2.72;0.63;;;;;;;;;;5101914;28;20046;-74
2022/02/26 06:49:38;;;;;;;3.35;0.60;;;;;;;;;;5102973;28;20047;-74
2022/02/26 06:52:04;;;;;;;1.05;0.50;;;;;;;;;;5101887;28;20024;-74
2022/02/26 06:54:30;;;;;;;5.90;1.00;;;;;;;;;;5103177;28;20024;-74
2022/02/26 06:56:55;;;;;;;1.42;0.63;;;;;;;;;;5102884;28;20020;-74
2022/02/26 06:59:21;;;;;;;1.55;0.73;;;;;;;;;;5101729;28;20027;-74
2022/02/26 07:01:47;;;;;;;6.53;0.85;;;;;;;;;;5103392;28;20462;-74
2022/02/26 07:04:13;;;;;;;5.75;1.60;;;;;;;;;;5103078;28;20020;-74
2022/02/26 07:06:42;;;;;;;4.72;0.90;;;;;;;;;;5101846;28;20038;-74
2022/02/26 07:09:09;;;;;;;6.65;0.82;;;;;;;;;;5103243;28;20035;-74
2022/02/26 07:11:35;;;;;;;1.90;0.70;;;;;;;;;;5103362;28;20028;-74
2022/02/26 07:14:01;;;;;;;1.48;0.77;;;;;;;;;;5102691;28;20028;-74
2022/02/26 07:16:29;;;;;;;2.60;0.77;;;;;;;;;;5101744;28;20023;-74
2022/02/26 07:18:54;;;;;;;4.70;0.70;;;;;;;;;;5103171;28;20099;-74
2022/02/26 07:21:20;;;;;;;2.63;0.70;;;;;;;;;;5103126;28;20020;-74
2022/02/26 07:23:45;;;;;;;2.80;0.82;;;;;;;;;;5102720;28;20027;-74
2022/02/26 07:26:10;;;;;;;3.60;0.80;;;;;;;;;;5101526;28;20027;-74
2022/02/26 07:28:36;;;;;;;3.55;0.82;;;;;;;;;;5103231;28;20016;-74
2022/02/26 07:31:01;;;;;;;3.95;0.75;;;;;;;;;;5102537;28;20052;-74
2022/02/26 07:33:27;;;;;;;3.22;0.90;;;;;;;;;;5101700;28;20050;-74
2022/02/26 07:35:52;;;;;;;2.78;0.50;;;;;;;;;;5103113;28;20111;-74
2022/02/26 07:38:18;;;;;;;2.63;0.70;;;;;;;;;;5101267;28;20032;-74
2022/02/26 07:40:44;;;;;;;3.22;0.57;;;;;;;;;;5100591;28;20032;-74
2022/02/26 07:43:10;;;;;;;2.40;0.80;;;;;;;;;;5102326;28;20093;-74
2022/02/26 07:45:35;;;;;;;2.28;0.80;;;;;;;;;;5102495;28;20063;-74
2022/02/26 07:48:01;;;;;;;3.22;0.77;;;;;;;;;;5101441;28;20032;-75
2022/02/26 07:50:26;;;;;;;3.22;0.60;;;;;;;;;;5102861;28;20578;-74
2022/02/26 07:52:52;;;;;;;3.45;0.80;;;;;;;;;;5101658;28;20036;-74
2022/02/26 07:55:17;;;;;;;5.43;0.80;;;;;;;;;;5102627;28;20088;-74
2022/02/26 07:57:43;;;;;;;4.60;0.95;;;;;;;;;;5101258;28;20046;-74
2022/02/26 08:00:09;;;;;;;3.67;1.10;;;;;;;;;;5101248;28;20529;-74
2022/02/26 08:02:34;;;;;;;3.78;0.90;;;;;;;;;;5101152;28;20051;-74
2022/02/26 08:05:00;;;;;;;3.88;0.93;;;;;;;;;;5101066;28;20478;-73
2022/02/26 08:07:25;;;;;;;3.85;1.00;;;;;;;;;;5103229;28;20035;-73
2022/02/26 08:09:51;;;;;;;4.60;0.85;;;;;;;;;;5106031;28;20165;-73
2022/02/26 08:12:16;;;;;;;7.75;0.70;;;;;;;;;;5105057;28;20444;-73
2022/02/26 08:14:41;;;;;;;2.97;0.70;;;;;;;;;;5105970;28;20042;-74
2022/02/26 08:17:07;;;;;;;5.97;1.13;;;;;;;;;;5106453;28;20130;-74
2022/02/26 08:19:33;;;;;;;4.38;0.75;;;;;;;;;;5105908;28;20028;-74
2022/02/26 08:21:59;;;;;;;7.60;1.00;;;;;;;;;;5104545;28;20047;-74
2022/02/26 08:24:24;;;;;;;3.28;0.80;;;;;;;;;;5105437;28;20051;-73
2022/02/26 08:26:50;;;;;;;3.33;0.88;;;;;;;;;;5105689;28;20059;-73
2022/02/26 08:29:15;;;;;;;2.85;0.60;;;;;;;;;;5105834;28;20213;-73
2022/02/26 08:31:42;;;;;;;2.88;1.10;;;;;;;;;;5106028;28;20036;-73
2022/02/26 08:34:07;;;;;;;2.38;0.70;;;;;;;;;;5105811;28;20067;-73
2022/02/26 08:36:33;;;;;;;0.70;0.47;;;;;;;;;;5104672;28;20028;-73
2022/02/26 08:38:58;;;;;;;1.70;0.80;;;;;;;;;;5105616;28;20032;-74
2022/02/26 08:41:24;;;;;;;2.75;0.85;;;;;;;;;;5105767;28;20031;-73
2022/02/26 08:43:49;;;;;;;3.30;0.80;;;;;;;;;;5104572;28;20028;-73
2022/02/26 08:46:14;;;;;;;0.75;0.43;;;;;;;;;;5105393;28;20054;-73
2022/02/26 08:48:40;;;;;;;2.95;0.43;;;;;;;;;;5105626;28;20080;-73
2022/02/26 08:51:05;;;;;;;1.25;0.50;;;;;;;;;;5104302;28;20028;-74
2022/02/26 08:53:31;;;;;;;2.58;0.70;;;;;;;;;;5105600;28;20028;-74
2022/02/26 08:55:56;;;;;;;2.72;0.80;;;;;;;;;;5105416;28;20035;-73
2022/02/26 08:58:22;;;;;;;4.40;0.70;;;;;;;;;;5105505;28;20037;-74
2022/02/26 09:00:49;;;;;;;1.77;0.95;;;;;;;;;;5105142;28;20052;-73
2022/02/26 09:03:15;;;;;;;1.92;0.55;;;;;;;;;;5105561;28;20384;-73
2022/02/26 09:05:40;;;;;;;2.53;0.60;;;;;;;;;;5105244;28;20335;-73
2022/02/26 09:08:05;;;;;;;4.47;0.80;;;;;;;;;;5105356;28;20047;-74
2022/02/26 09:10:32;;;;;;;5.18;0.95;;;;;;;;;;5105293;28;20046;-73
2022/02/26 09:12:58;;;;;;;3.38;0.68;;;;;;;;;;5105323;28;20019;-74
2022/02/26 09:15:23;;;;;;;1.05;0.50;;;;;;;;;;5104997;28;20032;-73
2022/02/26 09:17:49;;;;;;;2.72;0.82;;;;;;;;;;5104952;28;20028;-73
2022/02/26 09:20:14;;;;;;;2.10;0.68;;;;;;;;;;5103520;28;20032;-73
2022/02/26 09:22:40;;;;;;;3.25;0.70;;;;;;;;;;5105051;28;20050;-74
2022/02/26 09:25:07;;;;;;;2.70;0.63;;;;;;;;;;5104655;28;20043;-73
2022/02/26 09:27:32;;;;;;;3.45;0.90;;;;;;;;;;5104917;28;20058;-73
2022/02/26 09:29:58;;;;;;;2.53;0.73;;;;;;;;;;5104718;28;20028;-73
2022/02/26 09:32:24;;;;;;;2.58;0.63;;;;;;;;;;5103945;28;20028;-73
2022/02/26 09:34:50;;;;;;;3.83;0.60;;;;;;;;;;5103507;28;20027;-74
2022/02/26 09:37:15;;;;;;;2.03;0.70;;;;;;;;;;5102432;28;20036;-73
2022/02/26 09:39:41;;;;;;;3.80;0.60;;;;;;;;;;5104399;28;20028;-73
2022/02/26 09:42:06;;;;;;;1.15;0.60;;;;;;;;;;5104629;28;20028;-73
2022/02/26 09:44:32;;;;;;;3.38;0.90;;;;;;;;;;5104319;28;20036;-73
2022/02/26 09:46:58;;;;;;;4.53;0.73;;;;;;;;;;5104136;28;20079;-74
2022/02/26 09:49:24;;;;;;;3.10;0.75;;;;;;;;;;5102865;28;20032;-72
2022/02/26 09:51:51;;;;;;;3.53;1.35;;;;;;;;;;5104435;28;20035;-74
2022/02/26 09:54:17;;;;;;;1.05;0.50;;;;;;;;;;5103534;28;20055;-73
2022/02/26 09:56:43;;;;;;;3.83;0.77;;;;;;;;;;5103007;28;20032;-74
2022/02/26 09:59:09;;;;;;;2.63;0.80;;;;;;;;;;5104188;28;20039;-74
2022/02/26 10:01:34;;;;;;;1.63;0.65;;;;;;;;;;5104350;28;20101;-74
2022/02/26 10:04:09;;;;;;;0.75;0.57;;;;;;;;;;5102384;28;20488;-74
2022/02/26 10:06:34;;;;;;;1.40;0.55;;;;;;;;;;5104101;28;20459;-74
2022/02/26 10:09:02;;;;;;;2.75;1.02;;;;;;;;;;5103694;28;20058;-74
2022/02/26 10:11:30;;;;;;;3.70;0.60;;;;;;;;;;5102968;28;20034;-73
2022/02/26 10:14:17;;;;;;;2.20;0.70;;;;;;;;;;5102696;28;20387;-73
2022/02/26 10:16:47;;;;;;;2.75;0.60;;;;;;;;;;5103332;28;20053;-73
2022/02/26 10:19:26;;;;;;;2.00;0.70;;;;;;;;;;5102850;28;20091;-72
2022/02/26 10:21:54;;;;;;;3.58;1.00;;;;;;;;;;5102752;28;20035;-74
2022/02/26 10:24:20;;;;;;;3.40;0.68;;;;;;;;;;5103214;28;20066;-73
2022/02/26 10:26:51;;;;;;;1.40;0.60;;;;;;;;;;5103800;28;20046;-74
2022/02/26 10:29:21;;;;;;;3.42;0.70;;;;;;;;;;5103302;28;20087;-74
2022/02/26 10:32:08;;;;;;;2.60;0.60;;;;;;;;;;5103187;28;20020;-73
2022/02/26 10:34:42;;;;;;;1.48;0.50;;;;;;;;;;5103243;28;20383;-73
2022/02/26 10:37:11;;;;;;;1.50;0.60;;;;;;;;;;5103755;28;20043;-73
2022/02/26 10:39:45;;;;;;;1.52;0.50;;;;;;;;;;5101950;28;20078;-74
2022/02/26 10:42:33;;;;;;;1.15;0.50;;;;;;;;;;5103849;28;20107;-73
2022/02/26 10:45:04;;;;;;;2.00;0.60;;;;;;;;;;5103039;28;20029;-73
2022/02/26 10:47:32;;;;;;;1.27;0.47;;;;;;;;;;5102110;28;20036;-74
2022/02/26 10:49:58;;;;;;;1.85;0.50;;;;;;;;;;5101466;28;20031;-73
2022/02/26 10:52:29;;;;;;;1.17;0.40;;;;;;;;;;5103536;28;20024;-73
2022/02/26 10:54:55;;;;;;;1.80;0.68;;;;;;;;;;5103556;28;20024;-73
2022/02/26 10:57:21;;;;;;;1.48;0.50;;;;;;;;;;5101407;28;20067;-73
2022/02/26 10:59:52;;;;;;;1.67;0.60;;;;;;;;;;5103277;28;20158;-73
2022/02/26 11:02:24;;;;;;;3.40;0.60;;;;;;;;;;5103292;28;20028;-74
2022/02/26 11:04:52;;;;;;;3.40;0.73;;;;;;;;;;5101705;28;20099;-74
2022/02/26 11:07:18;;;;;;;1.05;0.40;;;;;;;;;;5101940;28;20440;-74
2022/02/26 11:09:47;;;;;;;1.67;0.80;;;;;;;;;;5102953;28;20063;-74
2022/02/26 11:12:16;;;;;;;2.60;0.60;;;;;;;;;;5102975;28;20077;-74
2022/02/26 11:14:53;;;;;;;2.47;0.60;;;;;;;;;;5102670;28;20032;-73
2022/02/26 11:17:28;;;;;;;1.13;0.40;;;;;;;;;;5102191;28;20032;-72
2022/02/26 11:19:58;;;;;;;1.63;0.75;;;;;;;;;;5101537;28;20441;-73
2022/02/26 11:22:28;;;;;;;2.88;1.15;;;;;;;;;;5103179;28;20024;-73
2022/02/26 11:24:54;;;;;;;0.98;0.52;;;;;;;;;;5102546;28;20098;-73
2022/02/26 11:27:24;;;;;;;1.73;0.60;;;;;;;;;;5103022;28;20027;-73
2022/02/26 11:29:50;;;;;;;2.28;0.63;;;;;;;;;;5102645;28;20047;-73
2022/02/26 11:32:16;;;;;;;0.95;0.47;;;;;;;;;;5102995;28;20024;-73
2022/02/26 11:34:42;;;;;;;2.22;0.50;;;;;;;;;;5102932;28;20095;-74
2022/02/26 11:37:10;;;;;;;1.98;0.40;;;;;;;;;;5101435;28;20028;-74
2022/02/26 11:39:43;;;;;;;2.10;0.60;;;;;;;;;;5102612;28;20040;-72
2022/02/26 11:42:27;;;;;;;0.40;0.30;;;;;;;;;;5105148;28;20052;-72
2022/02/26 11:45:04;;;;;;;2.85;0.65;;;;;;;;;;5106521;28;20476;-73
2022/02/26 11:47:37;;;;;;;0.98;0.40;;;;;;;;;;5106692;28;20149;-73
2022/02/26 11:50:33;;;;;;;1.30;0.50;;;;;;;;;;5106701;28;20050;-74
2022/02/26 11:53:19;;;;;;;1.58;0.50;;;;;;;;;;5106552;28;20106;-72
2022/02/26 11:55:49;;;;;;;1.27;0.50;;;;;;;;;;5106655;28;20024;-73
2022/02/26 11:58:18;;;;;;;1.23;0.40;;;;;;;;;;5104787;28;20056;-73
2022/02/26 12:00:51;;;;;;;2.05;0.68;;;;;;;;;;5105266;28;20035;-73
2022/02/26 12:03:27;;;;;;;3.13;0.85;;;;;;;;;;5104647;28;20084;-72
2022/02/26 12:05:56;;;;;;;3.63;0.60;;;;;;;;;;5104675;28;20028;-73
2022/02/26 12:08:42;;;;;;;3.70;0.50;;;;;;;;;;5104958;28;20126;-73
2022/02/26 12:11:11;;;;;;;0.95;0.50;;;;;;;;;;5104839;28;20028;-73
2022/02/26 12:13:41;;;;;;;3.72;0.70;;;;;;;;;;5103694;28;20028;-73
2022/02/26 12:16:28;;;;;;;2.25;0.70;;;;;;;;;;5106035;28;20043;-73
2022/02/26 12:19:04;;;;;;;2.53;0.52;;;;;;;;;;5106336;28;20024;-73
2022/02/26 12:21:37;;;;;;;1.40;0.55;;;;;;;;;;5106304;28;20036;-74
2022/02/26 12:24:10;;;;;;;1.73;0.50;;;;;;;;;;5104297;28;20119;-73
2022/02/26 12:26:44;;;;;;;3.28;2.05;;;;;;;;;;5104716;28;20063;-74
2022/02/26 12:29:40;;;;;;;1.33;0.65;;;;;;;;;;5105832;28;20051;-73
2022/02/26 12:32:14;;;;;;;1.92;0.52;;;;;;;;;;5093483;28;20390;-73
2022/02/26 12:35:10;;;;;;;4.43;0.95;;;;;;;;;;5105804;28;20028;-73
2022/02/26 12:37:37;;;;;;;4.15;1.02;;;;;;;;;;5103728;28;20048;-73
2022/02/26 12:40:04;;;;;;;3.15;0.75;;;;;;;;;;5105230;28;20024;-73
2022/02/26 12:42:34;;;;;;;5.78;0.90;;;;;;;;;;5104278;28;20032;-74
2022/02/26 12:45:04;;;;;;;1.45;0.80;;;;;;;;;;5104141;28;20032;-73
2022/02/26 12:47:30;;;;;;;3.22;0.82;;;;;;;;;;5104533;28;20134;-73
2022/02/26 12:49:57;;;;;;;3.63;0.75;;;;;;;;;;5105249;28;20063;-74
2022/02/26 12:52:23;;;;;;;2.45;0.68;;;;;;;;;;5104186;28;20057;-73
2022/02/26 12:54:49;;;;;;;3.50;0.70;;;;;;;;;;5104439;28;20032;-73
2022/02/26 12:57:15;;;;;;;4.60;1.17;;;;;;;;;;5105268;28;20032;-73
2022/02/26 12:59:45;;;;;;;2.15;0.60;;;;;;;;;;5105162;28;20032;-73
2022/02/26 13:02:11;;;;;;;3.55;0.90;;;;;;;;;;5105116;28;20105;-72
2022/02/26 13:04:42;;;;;;;3.65;1.17;;;;;;;;;;5105111;28;20036;-72
2022/02/26 13:07:18;;;;;;;2.65;0.60;;;;;;;;;;5105310;28;20024;-74
2022/02/26 13:09:51;;;;;;;1.70;0.75;;;;;;;;;;5105201;28;20024;-73
2022/02/26 13:12:28;;;;;;;5.72;0.95;;;;;;;;;;5105502;28;20024;-73
2022/02/26 13:14:55;;;;;;;2.60;0.85;;;;;;;;;;5104979;28;20032;-73
2022/02/26 13:17:21;;;;;;;3.20;0.57;;;;;;;;;;5105009;28;20054;-73
2022/02/26 13:19:46;;;;;;;2.03;0.73;;;;;;;;;;5104394;28;20024;-73
2022/02/26 13:22:12;;;;;;;1.13;0.40;;;;;;;;;;5105000;28;20065;-73
2022/02/26 13:24:39;;;;;;;4.00;0.70;;;;;;;;;;5104315;28;20055;-73
2022/02/26 13:27:10;;;;;;;2.08;0.70;;;;;;;;;;5104663;28;20068;-73
2022/02/26 13:29:42;;;;;;;2.08;0.50;;;;;;;;;;5104387;28;20031;-73
2022/02/26 13:32:22;;;;;;;2.60;0.82;;;;;;;;;;5104454;28;20035;-73
2022/02/26 13:34:49;;;;;;;2.20;0.40;;;;;;;;;;5104273;28;20324;-74
2022/02/26 13:37:15;;;;;;;0.73;0.35;;;;;;;;;;5104411;28;20058;-74
2022/02/26 13:39:45;;;;;;;1.85;0.68;;;;;;;;;;5104057;28;20031;-74
2022/02/26 13:42:11;;;;;;;3.45;0.70;;;;;;;;;;5104037;28;20036;-74
2022/02/26 13:44:38;;;;;;;1.50;0.60;;;;;;;;;;5104233;28;20024;-74
2022/02/26 13:47:12;;;;;;;1.38;0.70;;;;;;;;;;5104265;28;20091;-73
2022/02/26 13:49:41;;;;;;;1.30;0.60;;;;;;;;;;5104405;28;20059;-74
2022/02/26 13:52:12;;;;;;;0.73;0.50;;;;;;;;;;5103735;28;20051;-73
2022/02/26 13:54:43;;;;;;;2.17;0.65;;;;;;;;;;5102215;28;20046;-74
2022/02/26 13:57:13;;;;;;;1.67;0.40;;;;;;;;;;5103551;28;20035;-74
2022/02/26 13:59:39;;;;;;;0.57;0.40;;;;;;;;;;5103485;28;20056;-74
2022/02/26 14:02:05;;;;;;;1.00;0.50;;;;;;;;;;5102723;28;20028;-74
2022/02/26 14:04:39;;;;;;;2.03;0.45;;;;;;;;;;5102979;28;20123;-74
2022/02/26 14:07:05;;;;;;;0.93;0.50;;;;;;;;;;5102219;28;20020;-74
2022/02/26 14:09:30;;;;;;;1.23;0.50;;;;;;;;;;5103710;28;20063;-74
2022/02/26 14:12:00;;;;;;;1.88;0.45;;;;;;;;;;5103642;28;20016;-74
2022/02/26 14:14:28;;;;;;;2.38;0.52;;;;;;;;;;5103409;28;20031;-74
2022/02/26 14:16:59;;;;;;;2.13;0.70;;;;;;;;;;5103720;28;20035;-74
2022/02/26 14:19:33;;;;;;;2.33;0.60;;;;;;;;;;5103320;28;20028;-74
2022/02/26 14:21:59;;;;;;;1.95;0.60;;;;;;;;;;5103319;28;20031;-73
2022/02/26 14:24:29;;;;;;;2.47;0.70;;;;;;;;;;5101695;28;20048;-73
2022/02/26 14:26:59;;;;;;;3.17;1.13;;;;;;;;;;5103422;28;20028;-74
2022/02/26 14:29:29;;;;;;;2.95;0.90;;;;;;;;;;5101365;28;20035;-73
2022/02/26 14:31:57;;;;;;;2.25;0.70;;;;;;;;;;5103614;28;20107;-73
2022/02/26 14:34:22;;;;;;;3.90;0.82;;;;;;;;;;5103615;28;20061;-73
2022/02/26 14:36:51;;;;;;;2.40;0.60;;;;;;;;;;5103898;28;20032;-73
2022/02/26 14:39:20;;;;;;;2.85;0.70;;;;;;;;;;5103193;28;20077;-73
2022/02/26 14:41:50;;;;;;;2.30;0.85;;;;;;;;;;5102170;28;20032;-72
2022/02/26 14:44:15;;;;;;;5.10;0.70;;;;;;;;;;5103234;28;20024;-72